createdAt,value
2024-01-07T00:00:37.996Z,76.92
2024-01-07T00:05:39.641Z,76.73
2024-01-07T00:10:41.190Z,76.99
2024-01-07T00:15:42.859Z,77.13
2024-01-07T00:20:45.718Z,76.91
2024-01-07T00:25:50.323Z,76.95
2024-01-07T00:30:56.775Z,77.41
2024-01-07T00:35:58.440Z,77.08
2024-01-07T00:41:00.083Z,77.26
2024-01-07T00:46:01.766Z,77.53
2024-01-07T00:51:03.572Z,77.60
2024-01-07T00:56:05.797Z,77.90
2024-01-07T01:01:09.542Z,77.81
2024-01-07T01:06:11.532Z,78.07
2024-01-07T01:11:13.230Z,78.03
2024-01-07T01:16:14.873Z,77.86
2024-01-07T01:21:16.813Z,78.15
2024-01-07T01:26:18.490Z,78.24
2024-01-07T01:31:20.216Z,78.52
2024-01-07T01:36:23.137Z,78.71
2024-01-07T01:41:24.846Z,78.62
2024-01-07T01:46:26.821Z,78.55
2024-01-07T01:51:28.648Z,78.76
2024-01-07T01:56:30.672Z,78.80
2024-01-07T02:01:32.857Z,78.88
2024-01-07T02:06:34.797Z,79.02
2024-01-07T02:11:36.377Z,79.37
2024-01-07T02:16:37.985Z,79.43
2024-01-07T02:21:39.580Z,79.32
2024-01-07T02:26:41.197Z,79.55
2024-01-07T02:31:42.936Z,79.69
2024-01-07T02:36:44.693Z,80.00
2024-01-07T02:41:47.035Z,80.03
2024-01-07T02:46:48.721Z,79.81
2024-01-07T02:51:51.202Z,79.57
2024-01-07T02:56:53.015Z,79.61
2024-01-07T03:01:54.626Z,79.84
2024-01-07T03:06:56.416Z,79.91
2024-01-07T03:11:58.181Z,79.81
2024-01-07T03:16:59.703Z,79.98
2024-01-07T03:22:01.338Z,79.62
2024-01-07T03:27:03.074Z,79.74
2024-01-07T03:32:04.982Z,79.82
2024-01-07T03:37:06.593Z,79.91
2024-01-07T03:42:12.779Z,80.15
2024-01-07T03:47:14.604Z,80.44
2024-01-07T03:52:16.241Z,80.17
2024-01-07T03:57:18.326Z,80.38
2024-01-07T04:02:19.927Z,80.47
2024-01-07T04:07:21.496Z,80.61
2024-01-07T04:12:23.056Z,81.11
2024-01-07T04:17:25.327Z,81.00
2024-01-07T04:22:26.986Z,80.96
2024-01-07T04:27:28.606Z,81.01
2024-01-07T04:32:30.430Z,81.41
2024-01-07T04:37:32.196Z,81.52
2024-01-07T04:42:33.926Z,81.54
2024-01-07T04:47:35.921Z,81.64
2024-01-07T04:52:37.599Z,81.62
2024-01-07T04:57:39.527Z,81.61
2024-01-07T05:02:41.130Z,81.63
2024-01-07T05:07:43.192Z,81.59
2024-01-07T05:12:44.770Z,81.74
2024-01-07T05:17:46.456Z,81.40
2024-01-07T05:22:48.062Z,81.34
2024-01-07T05:27:49.720Z,81.42
2024-01-07T05:32:51.453Z,81.49
2024-01-07T05:37:53.146Z,81.44
2024-01-07T05:42:54.774Z,81.53
2024-01-07T05:47:56.418Z,81.49
2024-01-07T05:52:57.989Z,81.52
2024-01-07T05:57:59.571Z,81.29
2024-01-07T06:03:38.645Z,81.53
2024-01-07T06:08:40.358Z,81.53
2024-01-07T06:13:41.890Z,80.98
2024-01-07T06:18:43.580Z,80.85
2024-01-07T06:23:46.041Z,80.68
2024-01-07T06:28:47.608Z,80.89
2024-01-07T06:33:49.610Z,81.83
2024-01-07T06:38:51.344Z,83.70
2024-01-07T06:43:55.162Z,82.93
2024-01-07T06:48:56.804Z,81.77
2024-01-07T06:53:58.376Z,81.12
2024-01-07T06:58:59.930Z,80.69
2024-01-07T07:04:02.087Z,80.64
2024-01-07T07:09:03.766Z,80.34
2024-01-07T07:14:05.343Z,80.16
2024-01-07T07:19:07.272Z,80.43
2024-01-07T07:24:09.024Z,80.07
2024-01-07T07:29:11.072Z,80.08
2024-01-07T07:34:13.559Z,80.11
2024-01-07T07:39:15.977Z,79.29
2024-01-07T07:44:17.691Z,79.14
2024-01-07T07:49:19.409Z,79.23
2024-01-07T07:54:21.211Z,78.92
2024-01-07T07:59:22.898Z,78.36
2024-01-07T08:04:24.818Z,77.95
2024-01-07T08:09:26.602Z,77.59
2024-01-07T08:14:28.399Z,77.52
2024-01-07T08:19:30.160Z,77.24
2024-01-07T08:24:32.023Z,77.15
2024-01-07T08:29:33.658Z,76.85
2024-01-07T08:34:36.338Z,76.60
2024-01-07T08:39:38.294Z,76.61
2024-01-07T08:44:40.635Z,76.75
2024-01-07T08:49:42.314Z,76.42
2024-01-07T08:54:44.029Z,76.75
2024-01-07T08:59:45.670Z,76.11
2024-01-07T09:04:47.300Z,76.25
2024-01-07T09:09:49.088Z,75.85
2024-01-07T09:14:50.858Z,75.65
2024-01-07T09:19:52.606Z,75.87
2024-01-07T09:24:54.497Z,75.59
2024-01-07T09:29:56.310Z,76.02
2024-01-07T09:34:59.176Z,76.20
2024-01-07T09:40:01.049Z,75.94
2024-01-07T09:45:05.208Z,76.19
2024-01-07T09:50:08.156Z,76.02
2024-01-07T09:55:14.043Z,76.03
2024-01-07T10:00:17.449Z,76.10
2024-01-07T10:05:19.243Z,75.51
2024-01-07T10:10:21.706Z,75.66
2024-01-07T10:15:24.048Z,75.69
2024-01-07T10:20:25.718Z,75.48
2024-01-07T10:25:27.552Z,75.24
2024-01-07T10:30:30.327Z,75.25
2024-01-07T10:35:36.954Z,75.18
2024-01-07T10:40:39.967Z,75.19
2024-01-07T10:45:41.861Z,75.20
2024-01-07T10:50:51.620Z,75.00
2024-01-07T10:56:05.152Z,75.10
2024-01-07T11:01:08.749Z,75.03
2024-01-07T11:06:24.751Z,75.17
2024-01-07T11:11:42.381Z,74.98
2024-01-07T11:16:45.408Z,74.85
2024-01-07T11:21:47.466Z,75.20
2024-01-07T11:26:49.843Z,75.24
2024-01-07T11:31:52.115Z,74.91
2024-01-07T11:36:54.170Z,75.30
2024-01-07T11:41:56.154Z,75.17
2024-01-07T11:46:57.833Z,75.07
2024-01-07T11:51:59.594Z,74.89
2024-01-07T12:03:27.234Z,75.62
2024-01-07T12:08:28.998Z,76.03
2024-01-07T12:13:31.234Z,75.87
2024-01-07T12:18:33.487Z,75.52
2024-01-07T12:23:41.678Z,75.74
2024-01-07T12:28:45.380Z,76.14
2024-01-07T12:33:48.231Z,76.43
2024-01-07T12:38:50.445Z,76.54
2024-01-07T12:43:52.120Z,76.82
2024-01-07T12:48:53.896Z,76.90
2024-01-07T12:53:58.059Z,77.17
2024-01-07T12:58:59.991Z,77.13
2024-01-07T13:04:01.915Z,77.27
2024-01-07T13:09:07.006Z,77.06
2024-01-07T13:14:09.862Z,76.53
2024-01-07T13:19:12.505Z,76.53
2024-01-07T13:24:14.389Z,76.23
2024-01-07T13:29:16.047Z,76.70
2024-01-07T13:34:19.436Z,76.35
2024-01-07T13:39:22.431Z,76.32
2024-01-07T13:44:24.697Z,76.38
2024-01-07T13:49:26.363Z,76.69
2024-01-07T13:54:28.182Z,76.94
2024-01-07T13:59:29.825Z,77.01
2024-01-07T14:04:31.736Z,76.97
2024-01-07T14:09:33.581Z,77.24
2024-01-07T14:14:35.268Z,77.57
2024-01-07T14:19:36.941Z,77.38
2024-01-07T14:24:38.742Z,77.84
2024-01-07T14:29:40.590Z,77.69
2024-01-07T14:34:43.100Z,78.25
2024-01-07T14:39:46.434Z,78.32
2024-01-07T14:44:51.342Z,77.82
2024-01-07T14:49:53.306Z,77.80
2024-01-07T14:54:55.022Z,77.41
2024-01-07T14:59:56.715Z,77.64
2024-01-07T15:04:58.937Z,77.59
2024-01-07T15:10:01.191Z,78.01
2024-01-07T15:15:06.928Z,78.13
2024-01-07T15:20:10.186Z,78.12
2024-01-07T15:25:12.169Z,78.18
2024-01-07T15:30:16.867Z,78.39
2024-01-07T15:35:19.528Z,76.54
2024-01-07T15:40:21.222Z,76.39
2024-01-07T15:45:22.980Z,76.09
2024-01-07T15:50:24.711Z,75.55
2024-01-07T15:55:26.411Z,74.61
2024-01-07T16:00:28.118Z,73.96
2024-01-07T16:05:31.138Z,73.87
2024-01-07T16:10:32.998Z,73.23
2024-01-07T16:15:34.930Z,73.17
2024-01-07T16:20:36.646Z,73.14
2024-01-07T16:25:39.249Z,73.26
2024-01-07T16:30:41.031Z,72.53
2024-01-07T16:35:43.543Z,72.07
2024-01-07T16:40:45.319Z,71.61
2024-01-07T16:45:47.126Z,71.01
2024-01-07T16:50:51.928Z,70.99
2024-01-07T16:55:53.907Z,70.90
2024-01-07T17:00:58.466Z,70.88
2024-01-07T17:06:01.835Z,71.05
2024-01-07T17:11:03.975Z,70.46
2024-01-07T17:16:07.336Z,70.58
2024-01-07T17:21:09.413Z,70.85
2024-01-07T17:26:11.208Z,70.87
2024-01-07T17:31:13.135Z,70.87
2024-01-07T17:36:16.723Z,70.72
2024-01-07T17:41:18.896Z,70.35
2024-01-07T17:46:20.668Z,70.63
2024-01-07T17:51:23.041Z,70.21
2024-01-07T17:56:26.403Z,70.72
2024-01-07T18:01:28.295Z,71.34
2024-01-07T18:06:29.963Z,70.96
2024-01-07T18:11:34.797Z,70.72
2024-01-07T18:16:39.925Z,70.78
2024-01-07T18:21:43.376Z,70.71
2024-01-07T18:26:46.581Z,70.60
2024-01-07T18:31:50.829Z,70.84
2024-01-07T18:36:54.197Z,70.84
2024-01-07T18:41:56.072Z,71.23
2024-01-07T18:46:57.772Z,71.17
2024-01-07T18:51:59.526Z,71.00
2024-01-07T18:57:02.159Z,70.47
2024-01-07T19:02:05.161Z,70.95
2024-01-07T19:07:07.380Z,70.72
2024-01-07T19:12:09.182Z,70.92
2024-01-07T19:17:11.217Z,71.33
2024-01-07T19:22:13.120Z,70.94
2024-01-07T19:27:14.919Z,70.95
2024-01-07T19:32:20.894Z,71.01
2024-01-07T19:37:22.708Z,71.51
2024-01-07T19:42:24.678Z,71.34
2024-01-07T19:47:26.653Z,71.55
2024-01-07T19:52:29.564Z,71.94
2024-01-07T19:57:31.390Z,71.74
2024-01-07T20:02:35.936Z,72.08
2024-01-07T20:07:37.758Z,71.97
2024-01-07T20:12:39.493Z,72.08
2024-01-07T20:17:43.823Z,72.01
2024-01-07T20:22:45.733Z,72.16
2024-01-07T20:27:47.437Z,71.98
2024-01-07T20:32:49.154Z,72.11
2024-01-07T20:37:50.934Z,72.44
2024-01-07T20:42:53.890Z,72.47
2024-01-07T20:47:55.750Z,72.43
2024-01-07T20:52:57.492Z,72.81
2024-01-07T20:57:59.227Z,72.57
2024-01-07T21:03:00.996Z,72.46
2024-01-07T21:08:02.653Z,72.39
2024-01-07T21:13:05.554Z,72.45
2024-01-07T21:18:08.458Z,72.94
2024-01-07T21:23:10.807Z,73.26
2024-01-07T21:28:15.798Z,73.32
2024-01-07T21:33:19.035Z,73.45
2024-01-07T21:38:21.584Z,73.39
2024-01-07T21:43:26.073Z,73.50
2024-01-07T21:48:27.928Z,73.43
2024-01-07T21:53:29.694Z,73.65
2024-01-07T22:04:57.395Z,73.93
2024-01-07T22:09:59.410Z,73.85
2024-01-07T22:15:01.230Z,73.95
2024-01-07T22:20:04.064Z,73.60
2024-01-07T22:25:06.262Z,73.72
2024-01-07T22:30:11.330Z,73.85
2024-01-07T22:35:13.151Z,74.03
2024-01-07T22:40:14.796Z,74.07
2024-01-07T22:45:16.452Z,73.88
2024-01-07T22:50:18.129Z,73.59
2024-01-07T22:55:19.979Z,74.02
2024-01-07T23:00:31.445Z,74.12
2024-01-07T23:05:34.601Z,73.62
2024-01-07T23:10:37.132Z,73.46
2024-01-07T23:15:38.885Z,73.51
2024-01-07T23:20:40.816Z,73.18
2024-01-07T23:25:42.593Z,73.45
2024-01-07T23:30:46.641Z,73.80
2024-01-07T23:35:54.747Z,73.59
2024-01-07T23:41:04.701Z,73.66
2024-01-07T23:46:06.887Z,73.59
2024-01-07T23:51:08.791Z,73.57
2024-01-07T23:56:10.567Z,73.74
